sensor_id;sensor_type;location;lat;lon;timestamp;temperature;humidity
680;DHT22;322;48.846;9.230;2023-10-13T00:01:11;16.30;99.90
680;DHT22;322;48.846;9.230;2023-10-13T00:03:40;16.30;99.90
680;DHT22;322;48.846;9.230;2023-10-13T00:06:10;16.30;99.90
680;DHT22;322;48.846;9.230;2023-10-13T00:08:38;16.40;99.90
680;DHT22;322;48.846;9.230;2023-10-13T00:11:06;16.40;99.90
680;DHT22;322;48.846;9.230;2023-10-13T00:13:36;16.30;99.90
680;DHT22;322;48.846;9.230;2023-10-13T00:16:10;16.30;99.90
680;DHT22;322;48.846;9.230;2023-10-13T00:18:44;16.20;99.90
680;DHT22;322;48.846;9.230;2023-10-13T00:21:14;16.10;99.90
680;DHT22;322;48.846;9.230;2023-10-13T00:23:51;15.90;99.90
680;DHT22;322;48.846;9.230;2023-10-13T00:26:22;15.80;99.90
680;DHT22;322;48.846;9.230;2023-10-13T00:28:54;15.70;99.90
680;DHT22;322;48.846;9.230;2023-10-13T00:31:37;15.90;99.90
680;DHT22;322;48.846;9.230;2023-10-13T00:34:06;15.80;99.90
680;DHT22;322;48.846;9.230;2023-10-13T00:36:40;15.80;99.90
680;DHT22;322;48.846;9.230;2023-10-13T00:39:15;15.70;99.90
680;DHT22;322;48.846;9.230;2023-10-13T00:41:43;15.60;99.90
680;DHT22;322;48.846;9.230;2023-10-13T00:44:19;15.50;99.90
680;DHT22;322;48.846;9.230;2023-10-13T00:46:53;15.40;99.90
680;DHT22;322;48.846;9.230;2023-10-13T00:49:23;15.20;99.90
680;DHT22;322;48.846;9.230;2023-10-13T00:51:52;15.20;99.90
680;DHT22;322;48.846;9.230;2023-10-13T00:54:23;15.20;99.90
680;DHT22;322;48.846;9.230;2023-10-13T00:56:55;15.10;99.90
680;DHT22;322;48.846;9.230;2023-10-13T00:59:31;15.00;99.90
680;DHT22;322;48.846;9.230;2023-10-13T01:02:08;14.80;99.90
680;DHT22;322;48.846;9.230;2023-10-13T01:04:50;14.70;99.90
680;DHT22;322;48.846;9.230;2023-10-13T01:07:22;14.60;99.90
680;DHT22;322;48.846;9.230;2023-10-13T01:09:50;14.70;99.90
680;DHT22;322;48.846;9.230;2023-10-13T01:12:18;14.70;99.90
680;DHT22;322;48.846;9.230;2023-10-13T01:14:45;14.70;99.90
680;DHT22;322;48.846;9.230;2023-10-13T01:17:13;14.70;99.90
680;DHT22;322;48.846;9.230;2023-10-13T01:19:40;14.70;99.90
680;DHT22;322;48.846;9.230;2023-10-13T01:22:10;14.70;99.90
680;DHT22;322;48.846;9.230;2023-10-13T01:24:39;14.60;99.90
680;DHT22;322;48.846;9.230;2023-10-13T01:27:07;14.60;99.90
680;DHT22;322;48.846;9.230;2023-10-13T01:29:44;14.60;99.90
680;DHT22;322;48.846;9.230;2023-10-13T01:32:16;14.50;99.90
680;DHT22;322;48.846;9.230;2023-10-13T01:34:44;14.50;99.90
680;DHT22;322;48.846;9.230;2023-10-13T01:37:13;14.40;99.90
680;DHT22;322;48.846;9.230;2023-10-13T01:39:44;14.30;99.90
680;DHT22;322;48.846;9.230;2023-10-13T01:42:15;14.30;99.90
680;DHT22;322;48.846;9.230;2023-10-13T01:44:47;14.10;99.90
680;DHT22;322;48.846;9.230;2023-10-13T01:47:14;14.10;99.90
680;DHT22;322;48.846;9.230;2023-10-13T01:49:43;14.00;99.90
680;DHT22;322;48.846;9.230;2023-10-13T01:52:14;13.90;99.90
680;DHT22;322;48.846;9.230;2023-10-13T01:54:45;13.80;99.90
680;DHT22;322;48.846;9.230;2023-10-13T01:57:13;13.80;99.90
680;DHT22;322;48.846;9.230;2023-10-13T01:59:41;13.70;99.90
680;DHT22;322;48.846;9.230;2023-10-13T02:02:11;13.60;99.90
680;DHT22;322;48.846;9.230;2023-10-13T02:04:40;13.70;99.90
680;DHT22;322;48.846;9.230;2023-10-13T02:07:15;13.70;99.90
680;DHT22;322;48.846;9.230;2023-10-13T02:09:42;13.70;99.90
680;DHT22;322;48.846;9.230;2023-10-13T02:12:12;13.60;99.90
680;DHT22;322;48.846;9.230;2023-10-13T02:14:41;13.60;99.90
680;DHT22;322;48.846;9.230;2023-10-13T02:17:09;13.60;99.90
680;DHT22;322;48.846;9.230;2023-10-13T02:19:40;13.40;99.90
680;DHT22;322;48.846;9.230;2023-10-13T02:22:12;13.50;99.90
680;DHT22;322;48.846;9.230;2023-10-13T02:24:50;13.40;99.90
680;DHT22;322;48.846;9.230;2023-10-13T02:27:20;13.40;99.90
680;DHT22;322;48.846;9.230;2023-10-13T02:29:50;13.40;99.90
680;DHT22;322;48.846;9.230;2023-10-13T02:32:25;13.30;99.90
680;DHT22;322;48.846;9.230;2023-10-13T02:34:53;13.20;99.90
680;DHT22;322;48.846;9.230;2023-10-13T02:37:24;13.10;99.90
680;DHT22;322;48.846;9.230;2023-10-13T02:39:51;13.20;99.90
680;DHT22;322;48.846;9.230;2023-10-13T02:42:20;13.20;99.90
680;DHT22;322;48.846;9.230;2023-10-13T02:44:50;13.20;99.90
680;DHT22;322;48.846;9.230;2023-10-13T02:47:18;13.00;99.90
680;DHT22;322;48.846;9.230;2023-10-13T02:49:50;13.00;99.90
680;DHT22;322;48.846;9.230;2023-10-13T02:52:17;13.00;99.90
680;DHT22;322;48.846;9.230;2023-10-13T02:54:47;13.00;99.90
680;DHT22;322;48.846;9.230;2023-10-13T02:57:14;13.10;99.90
680;DHT22;322;48.846;9.230;2023-10-13T02:59:45;13.00;99.90
680;DHT22;322;48.846;9.230;2023-10-13T03:02:14;12.90;99.90
680;DHT22;322;48.846;9.230;2023-10-13T03:04:50;12.90;99.90
680;DHT22;322;48.846;9.230;2023-10-13T03:07:17;12.90;99.90
680;DHT22;322;48.846;9.230;2023-10-13T03:09:50;12.90;99.90
680;DHT22;322;48.846;9.230;2023-10-13T03:12:18;12.90;99.90
680;DHT22;322;48.846;9.230;2023-10-13T03:14:48;12.80;99.90
680;DHT22;322;48.846;9.230;2023-10-13T03:17:16;12.80;99.90
680;DHT22;322;48.846;9.230;2023-10-13T03:19:46;12.80;99.90
680;DHT22;322;48.846;9.230;2023-10-13T03:22:17;12.70;99.90
680;DHT22;322;48.846;9.230;2023-10-13T03:24:57;12.70;99.90
680;DHT22;322;48.846;9.230;2023-10-13T03:27:31;12.70;99.90
680;DHT22;322;48.846;9.230;2023-10-13T03:30:10;12.60;99.90
680;DHT22;322;48.846;9.230;2023-10-13T03:32:41;12.60;99.90
680;DHT22;322;48.846;9.230;2023-10-13T03:35:10;12.50;99.90
680;DHT22;322;48.846;9.230;2023-10-13T03:37:40;12.60;99.90
680;DHT22;322;48.846;9.230;2023-10-13T03:40:09;12.50;99.90
680;DHT22;322;48.846;9.230;2023-10-13T03:43:01;12.50;99.90
680;DHT22;322;48.846;9.230;2023-10-13T03:45:35;12.60;99.90
680;DHT22;322;48.846;9.230;2023-10-13T03:48:06;12.60;99.90
680;DHT22;322;48.846;9.230;2023-10-13T03:50:38;12.60;99.90
680;DHT22;322;48.846;9.230;2023-10-13T03:53:13;12.50;99.90
680;DHT22;322;48.846;9.230;2023-10-13T03:55:41;12.50;99.90
680;DHT22;322;48.846;9.230;2023-10-13T03:58:15;12.40;99.90
680;DHT22;322;48.846;9.230;2023-10-13T04:00:45;12.40;99.90
680;DHT22;322;48.846;9.230;2023-10-13T04:03:14;12.40;99.90
680;DHT22;322;48.846;9.230;2023-10-13T04:05:45;12.30;99.90
680;DHT22;322;48.846;9.230;2023-10-13T04:08:28;12.40;99.90
680;DHT22;322;48.846;9.230;2023-10-13T04:11:35;12.30;99.90
680;DHT22;322;48.846;9.230;2023-10-13T04:14:33;12.30;99.90
680;DHT22;322;48.846;9.230;2023-10-13T04:17:17;12.30;99.90
680;DHT22;322;48.846;9.230;2023-10-13T04:19:50;12.30;99.90
680;DHT22;322;48.846;9.230;2023-10-13T04:22:32;12.30;99.90
680;DHT22;322;48.846;9.230;2023-10-13T04:25:18;12.40;99.90
680;DHT22;322;48.846;9.230;2023-10-13T04:28:00;12.30;99.90
680;DHT22;322;48.846;9.230;2023-10-13T04:30:44;12.40;99.90
680;DHT22;322;48.846;9.230;2023-10-13T04:33:28;12.40;99.90
680;DHT22;322;48.846;9.230;2023-10-13T04:36:13;12.50;99.90
680;DHT22;322;48.846;9.230;2023-10-13T04:38:41;12.60;99.90
680;DHT22;322;48.846;9.230;2023-10-13T04:41:24;12.60;99.90
680;DHT22;322;48.846;9.230;2023-10-13T04:43:51;12.50;99.90
680;DHT22;322;48.846;9.230;2023-10-13T04:46:24;12.50;99.90
680;DHT22;322;48.846;9.230;2023-10-13T04:49:10;12.50;99.90
680;DHT22;322;48.846;9.230;2023-10-13T04:51:55;12.40;99.90
680;DHT22;322;48.846;9.230;2023-10-13T04:54:26;12.40;99.90
680;DHT22;322;48.846;9.230;2023-10-13T04:57:00;12.30;99.90
680;DHT22;322;48.846;9.230;2023-10-13T04:59:46;12.30;99.90
680;DHT22;322;48.846;9.230;2023-10-13T05:02:32;12.30;99.90
680;DHT22;322;48.846;9.230;2023-10-13T05:05:19;12.20;99.90
680;DHT22;322;48.846;9.230;2023-10-13T05:08:12;12.20;99.90
680;DHT22;322;48.846;9.230;2023-10-13T05:11:03;12.20;99.90
680;DHT22;322;48.846;9.230;2023-10-13T05:13:49;12.20;99.90
680;DHT22;322;48.846;9.230;2023-10-13T05:16:34;12.20;99.90
680;DHT22;322;48.846;9.230;2023-10-13T05:19:20;12.20;99.90
680;DHT22;322;48.846;9.230;2023-10-13T05:22:07;12.20;99.90
680;DHT22;322;48.846;9.230;2023-10-13T05:24:52;12.30;99.90
680;DHT22;322;48.846;9.230;2023-10-13T05:27:38;12.30;99.90
680;DHT22;322;48.846;9.230;2023-10-13T05:30:23;12.30;99.90
680;DHT22;322;48.846;9.230;2023-10-13T05:33:09;12.30;99.90
680;DHT22;322;48.846;9.230;2023-10-13T05:35:55;12.30;99.90
680;DHT22;322;48.846;9.230;2023-10-13T05:38:41;12.30;99.90
680;DHT22;322;48.846;9.230;2023-10-13T05:41:27;12.50;99.90
680;DHT22;322;48.846;9.230;2023-10-13T05:44:13;12.50;99.90
680;DHT22;322;48.846;9.230;2023-10-13T05:46:58;12.60;99.90
680;DHT22;322;48.846;9.230;2023-10-13T05:49:50;12.70;99.90
680;DHT22;322;48.846;9.230;2023-10-13T05:52:19;12.60;99.90
680;DHT22;322;48.846;9.230;2023-10-13T05:55:08;12.60;99.90
680;DHT22;322;48.846;9.230;2023-10-13T05:57:54;12.60;99.90
680;DHT22;322;48.846;9.230;2023-10-13T06:00:41;12.60;99.90
680;DHT22;322;48.846;9.230;2023-10-13T06:03:26;12.70;99.90
680;DHT22;322;48.846;9.230;2023-10-13T06:06:12;12.70;99.90
680;DHT22;322;48.846;9.230;2023-10-13T06:08:57;12.80;99.90
680;DHT22;322;48.846;9.230;2023-10-13T06:11:44;12.90;99.90
680;DHT22;322;48.846;9.230;2023-10-13T06:14:30;13.10;99.90
680;DHT22;322;48.846;9.230;2023-10-13T06:17:15;13.20;99.90
680;DHT22;322;48.846;9.230;2023-10-13T06:20:12;13.40;99.90
680;DHT22;322;48.846;9.230;2023-10-13T06:22:57;13.50;99.90
680;DHT22;322;48.846;9.230;2023-10-13T06:25:43;13.70;99.90
680;DHT22;322;48.846;9.230;2023-10-13T06:28:36;13.90;99.90
680;DHT22;322;48.846;9.230;2023-10-13T06:31:12;14.00;99.90
680;DHT22;322;48.846;9.230;2023-10-13T06:33:49;14.20;99.90
680;DHT22;322;48.846;9.230;2023-10-13T06:36:17;14.30;99.90
680;DHT22;322;48.846;9.230;2023-10-13T06:38:45;14.50;99.90
680;DHT22;322;48.846;9.230;2023-10-13T06:41:22;14.60;99.90
680;DHT22;322;48.846;9.230;2023-10-13T06:43:59;14.80;99.90
680;DHT22;322;48.846;9.230;2023-10-13T06:46:27;15.20;99.90
680;DHT22;322;48.846;9.230;2023-10-13T06:48:56;15.30;99.90
680;DHT22;322;48.846;9.230;2023-10-13T06:51:28;15.50;99.90
680;DHT22;322;48.846;9.230;2023-10-13T06:54:06;15.80;99.90
680;DHT22;322;48.846;9.230;2023-10-13T06:56:38;15.80;99.90
680;DHT22;322;48.846;9.230;2023-10-13T06:59:08;15.90;99.90
680;DHT22;322;48.846;9.230;2023-10-13T07:01:36;15.70;99.90
680;DHT22;322;48.846;9.230;2023-10-13T07:04:08;15.80;99.90
680;DHT22;322;48.846;9.230;2023-10-13T07:06:41;15.70;99.90
680;DHT22;322;48.846;9.230;2023-10-13T07:09:15;15.70;99.90
680;DHT22;322;48.846;9.230;2023-10-13T07:12:07;15.80;99.90
680;DHT22;322;48.846;9.230;2023-10-13T07:14:48;15.70;99.90
680;DHT22;322;48.846;9.230;2023-10-13T07:17:20;15.80;99.90
680;DHT22;322;48.846;9.230;2023-10-13T07:19:52;15.80;99.90
680;DHT22;322;48.846;9.230;2023-10-13T07:22:32;15.70;99.90
680;DHT22;322;48.846;9.230;2023-10-13T07:25:07;15.80;99.90
680;DHT22;322;48.846;9.230;2023-10-13T07:27:35;15.80;99.90
680;DHT22;322;48.846;9.230;2023-10-13T07:30:06;15.80;99.90
680;DHT22;322;48.846;9.230;2023-10-13T07:32:40;16.00;99.90
680;DHT22;322;48.846;9.230;2023-10-13T07:35:15;16.10;99.90
680;DHT22;322;48.846;9.230;2023-10-13T07:37:44;16.30;99.90
680;DHT22;322;48.846;9.230;2023-10-13T07:40:15;16.40;99.90
680;DHT22;322;48.846;9.230;2023-10-13T07:43:06;16.60;99.90
680;DHT22;322;48.846;9.230;2023-10-13T07:45:40;16.60;99.90
680;DHT22;322;48.846;9.230;2023-10-13T07:48:09;16.70;99.90
680;DHT22;322;48.846;9.230;2023-10-13T07:50:43;16.80;99.90
680;DHT22;322;48.846;9.230;2023-10-13T07:53:12;17.00;99.90
680;DHT22;322;48.846;9.230;2023-10-13T07:55:51;17.10;99.90
680;DHT22;322;48.846;9.230;2023-10-13T07:58:23;17.20;99.90
680;DHT22;322;48.846;9.230;2023-10-13T08:00:54;17.40;99.90
680;DHT22;322;48.846;9.230;2023-10-13T08:03:34;17.60;99.90
680;DHT22;322;48.846;9.230;2023-10-13T08:06:14;17.70;99.90
680;DHT22;322;48.846;9.230;2023-10-13T08:08:53;17.90;99.90
680;DHT22;322;48.846;9.230;2023-10-13T08:11:22;18.10;99.90
680;DHT22;322;48.846;9.230;2023-10-13T08:13:54;18.40;99.90
680;DHT22;322;48.846;9.230;2023-10-13T08:16:40;18.60;99.90
680;DHT22;322;48.846;9.230;2023-10-13T08:19:21;18.80;99.90
680;DHT22;322;48.846;9.230;2023-10-13T08:21:54;18.90;99.90
680;DHT22;322;48.846;9.230;2023-10-13T08:24:26;19.20;99.90
680;DHT22;322;48.846;9.230;2023-10-13T08:27:18;19.40;99.90
680;DHT22;322;48.846;9.230;2023-10-13T08:30:03;19.60;99.90
680;DHT22;322;48.846;9.230;2023-10-13T08:32:57;19.80;99.90
680;DHT22;322;48.846;9.230;2023-10-13T08:35:26;19.90;99.90
680;DHT22;322;48.846;9.230;2023-10-13T08:38:04;20.10;99.90
680;DHT22;322;48.846;9.230;2023-10-13T08:40:59;20.30;99.90
680;DHT22;322;48.846;9.230;2023-10-13T08:43:45;20.50;99.90
680;DHT22;322;48.846;9.230;2023-10-13T08:46:19;20.70;99.90
680;DHT22;322;48.846;9.230;2023-10-13T08:48:59;20.90;99.90
680;DHT22;322;48.846;9.230;2023-10-13T08:51:36;21.20;99.20
680;DHT22;322;48.846;9.230;2023-10-13T08:54:17;21.40;97.00
680;DHT22;322;48.846;9.230;2023-10-13T08:57:02;21.50;95.90
680;DHT22;322;48.846;9.230;2023-10-13T08:59:59;21.70;94.10
680;DHT22;322;48.846;9.230;2023-10-13T09:02:41;21.90;93.60
680;DHT22;322;48.846;9.230;2023-10-13T09:05:38;22.10;93.30
680;DHT22;322;48.846;9.230;2023-10-13T09:08:28;22.20;90.70
680;DHT22;322;48.846;9.230;2023-10-13T09:11:11;22.30;90.40
680;DHT22;322;48.846;9.230;2023-10-13T09:13:42;22.40;87.50
680;DHT22;322;48.846;9.230;2023-10-13T09:16:12;22.60;86.50
680;DHT22;322;48.846;9.230;2023-10-13T09:19:10;22.70;83.80
680;DHT22;322;48.846;9.230;2023-10-13T09:21:41;23.00;81.30
680;DHT22;322;48.846;9.230;2023-10-13T09:24:14;23.30;77.50
680;DHT22;322;48.846;9.230;2023-10-13T09:26:50;23.60;74.20
680;DHT22;322;48.846;9.230;2023-10-13T09:29:23;23.90;74.40
680;DHT22;322;48.846;9.230;2023-10-13T09:31:59;24.30;71.80
680;DHT22;322;48.846;9.230;2023-10-13T09:34:30;24.50;70.10
680;DHT22;322;48.846;9.230;2023-10-13T09:37:02;24.70;67.30
680;DHT22;322;48.846;9.230;2023-10-13T09:39:32;25.00;67.70
680;DHT22;322;48.846;9.230;2023-10-13T09:42:12;25.30;66.50
680;DHT22;322;48.846;9.230;2023-10-13T09:44:45;25.50;61.70
680;DHT22;322;48.846;9.230;2023-10-13T09:47:22;25.90;61.10
680;DHT22;322;48.846;9.230;2023-10-13T09:50:00;26.20;59.60
680;DHT22;322;48.846;9.230;2023-10-13T09:52:34;26.20;60.10
680;DHT22;322;48.846;9.230;2023-10-13T09:55:19;26.40;58.20
680;DHT22;322;48.846;9.230;2023-10-13T09:57:54;26.50;56.20
680;DHT22;322;48.846;9.230;2023-10-13T10:00:29;26.90;54.80
680;DHT22;322;48.846;9.230;2023-10-13T10:03:15;27.30;54.80
680;DHT22;322;48.846;9.230;2023-10-13T10:05:58;27.70;52.50
680;DHT22;322;48.846;9.230;2023-10-13T10:08:33;27.90;52.80
680;DHT22;322;48.846;9.230;2023-10-13T10:11:17;28.10;49.20
680;DHT22;322;48.846;9.230;2023-10-13T10:13:52;28.30;50.20
680;DHT22;322;48.846;9.230;2023-10-13T10:16:40;28.50;47.70
680;DHT22;322;48.846;9.230;2023-10-13T10:19:13;28.60;47.50
680;DHT22;322;48.846;9.230;2023-10-13T10:21:42;28.90;46.40
680;DHT22;322;48.846;9.230;2023-10-13T10:24:15;29.10;46.80
680;DHT22;322;48.846;9.230;2023-10-13T10:26:51;29.20;46.60
680;DHT22;322;48.846;9.230;2023-10-13T10:29:19;29.40;45.10
680;DHT22;322;48.846;9.230;2023-10-13T10:31:46;29.20;45.50
680;DHT22;322;48.846;9.230;2023-10-13T10:34:16;29.10;45.40
680;DHT22;322;48.846;9.230;2023-10-13T10:36:48;29.10;45.40
680;DHT22;322;48.846;9.230;2023-10-13T10:39:19;28.70;44.70
680;DHT22;322;48.846;9.230;2023-10-13T10:41:48;28.50;46.40
680;DHT22;322;48.846;9.230;2023-10-13T10:44:19;28.20;45.60
680;DHT22;322;48.846;9.230;2023-10-13T10:47:11;28.30;47.00
680;DHT22;322;48.846;9.230;2023-10-13T10:49:46;27.90;45.30
680;DHT22;322;48.846;9.230;2023-10-13T10:52:17;27.20;46.10
680;DHT22;322;48.846;9.230;2023-10-13T10:54:58;26.70;47.40
680;DHT22;322;48.846;9.230;2023-10-13T10:57:26;26.90;47.10
680;DHT22;322;48.846;9.230;2023-10-13T10:59:58;27.90;46.50
680;DHT22;322;48.846;9.230;2023-10-13T11:02:39;29.00;46.40
680;DHT22;322;48.846;9.230;2023-10-13T11:05:07;29.20;44.50
680;DHT22;322;48.846;9.230;2023-10-13T11:07:37;29.30;44.40
680;DHT22;322;48.846;9.230;2023-10-13T11:10:09;29.50;42.30
680;DHT22;322;48.846;9.230;2023-10-13T11:12:56;29.60;42.50
680;DHT22;322;48.846;9.230;2023-10-13T11:15:42;29.40;42.30
680;DHT22;322;48.846;9.230;2023-10-13T11:18:11;29.10;43.20
680;DHT22;322;48.846;9.230;2023-10-13T11:20:48;29.10;42.10
680;DHT22;322;48.846;9.230;2023-10-13T11:23:21;29.70;42.30
680;DHT22;322;48.846;9.230;2023-10-13T11:25:58;30.50;40.80
680;DHT22;322;48.846;9.230;2023-10-13T11:28:26;31.00;39.80
680;DHT22;322;48.846;9.230;2023-10-13T11:30:56;31.40;41.00
680;DHT22;322;48.846;9.230;2023-10-13T11:33:26;32.00;38.40
680;DHT22;322;48.846;9.230;2023-10-13T11:35:56;32.20;37.70
680;DHT22;322;48.846;9.230;2023-10-13T11:38:25;32.60;36.90
680;DHT22;322;48.846;9.230;2023-10-13T11:40:54;33.20;36.10
680;DHT22;322;48.846;9.230;2023-10-13T11:43:44;33.80;36.20
680;DHT22;322;48.846;9.230;2023-10-13T11:46:32;34.20;34.80
680;DHT22;322;48.846;9.230;2023-10-13T11:49:23;34.20;35.90
680;DHT22;322;48.846;9.230;2023-10-13T11:52:03;33.60;35.30
680;DHT22;322;48.846;9.230;2023-10-13T11:54:43;32.40;35.80
680;DHT22;322;48.846;9.230;2023-10-13T11:57:14;31.50;36.90
680;DHT22;322;48.846;9.230;2023-10-13T11:59:47;31.60;37.00
680;DHT22;322;48.846;9.230;2023-10-13T12:02:22;32.70;36.10
680;DHT22;322;48.846;9.230;2023-10-13T12:05:08;33.50;35.70
680;DHT22;322;48.846;9.230;2023-10-13T12:07:40;34.40;33.90
680;DHT22;322;48.846;9.230;2023-10-13T12:10:15;34.70;33.30
680;DHT22;322;48.846;9.230;2023-10-13T12:12:47;34.80;32.70
680;DHT22;322;48.846;9.230;2023-10-13T12:15:21;34.50;32.60
680;DHT22;322;48.846;9.230;2023-10-13T12:18:04;34.50;32.40
680;DHT22;322;48.846;9.230;2023-10-13T12:20:32;35.00;32.70
680;DHT22;322;48.846;9.230;2023-10-13T12:23:02;35.20;32.50
680;DHT22;322;48.846;9.230;2023-10-13T12:25:44;34.60;32.80
680;DHT22;322;48.846;9.230;2023-10-13T12:28:22;33.80;33.10
680;DHT22;322;48.846;9.230;2023-10-13T12:30:55;32.60;33.50
680;DHT22;322;48.846;9.230;2023-10-13T12:33:25;31.90;34.90
680;DHT22;322;48.846;9.230;2023-10-13T12:35:58;31.10;35.40
680;DHT22;322;48.846;9.230;2023-10-13T12:38:37;30.60;37.40
680;DHT22;322;48.846;9.230;2023-10-13T12:41:18;29.90;37.40
680;DHT22;322;48.846;9.230;2023-10-13T12:44:06;29.20;38.60
680;DHT22;322;48.846;9.230;2023-10-13T12:46:53;28.60;38.90
680;DHT22;322;48.846;9.230;2023-10-13T12:49:39;28.30;39.80
680;DHT22;322;48.846;9.230;2023-10-13T12:52:19;28.20;40.70
680;DHT22;322;48.846;9.230;2023-10-13T12:54:47;28.40;40.10
680;DHT22;322;48.846;9.230;2023-10-13T12:57:26;28.60;40.60
680;DHT22;322;48.846;9.230;2023-10-13T12:59:55;29.00;40.60
680;DHT22;322;48.846;9.230;2023-10-13T13:02:25;29.60;39.70
680;DHT22;322;48.846;9.230;2023-10-13T13:04:55;30.10;39.40
680;DHT22;322;48.846;9.230;2023-10-13T13:07:33;30.30;38.80
680;DHT22;322;48.846;9.230;2023-10-13T13:10:10;30.20;38.90
680;DHT22;322;48.846;9.230;2023-10-13T13:12:40;30.10;38.10
680;DHT22;322;48.846;9.230;2023-10-13T13:15:09;29.80;38.70
680;DHT22;322;48.846;9.230;2023-10-13T13:17:40;29.70;40.00
680;DHT22;322;48.846;9.230;2023-10-13T13:20:09;29.80;39.50
680;DHT22;322;48.846;9.230;2023-10-13T13:22:53;29.80;38.90
680;DHT22;322;48.846;9.230;2023-10-13T13:25:22;29.50;39.10
680;DHT22;322;48.846;9.230;2023-10-13T13:27:57;29.50;40.40
680;DHT22;322;48.846;9.230;2023-10-13T13:30:31;29.30;40.00
680;DHT22;322;48.846;9.230;2023-10-13T13:33:04;29.30;39.20
680;DHT22;322;48.846;9.230;2023-10-13T13:35:38;29.40;38.90
680;DHT22;322;48.846;9.230;2023-10-13T13:38:06;29.30;39.00
680;DHT22;322;48.846;9.230;2023-10-13T13:40:43;29.20;39.30
680;DHT22;322;48.846;9.230;2023-10-13T13:43:16;29.30;39.20
680;DHT22;322;48.846;9.230;2023-10-13T13:45:59;29.30;38.80
680;DHT22;322;48.846;9.230;2023-10-13T13:48:30;29.30;38.10
680;DHT22;322;48.846;9.230;2023-10-13T13:51:03;29.40;37.60
680;DHT22;322;48.846;9.230;2023-10-13T13:53:39;29.30;38.20
680;DHT22;322;48.846;9.230;2023-10-13T13:56:11;29.30;38.40
680;DHT22;322;48.846;9.230;2023-10-13T13:58:42;29.20;37.30
680;DHT22;322;48.846;9.230;2023-10-13T14:01:11;29.20;37.10
680;DHT22;322;48.846;9.230;2023-10-13T14:03:44;29.10;37.30
680;DHT22;322;48.846;9.230;2023-10-13T14:06:13;29.00;37.30
680;DHT22;322;48.846;9.230;2023-10-13T14:08:45;28.90;38.00
680;DHT22;322;48.846;9.230;2023-10-13T14:11:17;28.80;38.20
680;DHT22;322;48.846;9.230;2023-10-13T14:14:05;28.80;37.90
680;DHT22;322;48.846;9.230;2023-10-13T14:16:38;28.80;38.10
680;DHT22;322;48.846;9.230;2023-10-13T14:19:12;28.90;37.40
680;DHT22;322;48.846;9.230;2023-10-13T14:21:46;28.90;38.30
680;DHT22;322;48.846;9.230;2023-10-13T14:24:20;28.80;37.30
680;DHT22;322;48.846;9.230;2023-10-13T14:26:54;28.70;37.70
680;DHT22;322;48.846;9.230;2023-10-13T14:29:22;28.70;37.10
680;DHT22;322;48.846;9.230;2023-10-13T14:31:53;28.60;37.60
680;DHT22;322;48.846;9.230;2023-10-13T14:34:23;28.60;37.60
680;DHT22;322;48.846;9.230;2023-10-13T14:36:53;28.60;37.80
680;DHT22;322;48.846;9.230;2023-10-13T14:39:21;28.70;37.70
680;DHT22;322;48.846;9.230;2023-10-13T14:41:49;28.50;38.70
680;DHT22;322;48.846;9.230;2023-10-13T14:44:17;28.50;37.60
680;DHT22;322;48.846;9.230;2023-10-13T14:46:45;28.50;37.90
680;DHT22;322;48.846;9.230;2023-10-13T14:49:13;28.50;38.90
680;DHT22;322;48.846;9.230;2023-10-13T14:51:47;28.50;37.70
680;DHT22;322;48.846;9.230;2023-10-13T14:54:16;28.40;38.40
680;DHT22;322;48.846;9.230;2023-10-13T14:56:52;28.40;37.80
680;DHT22;322;48.846;9.230;2023-10-13T14:59:21;28.50;37.40
680;DHT22;322;48.846;9.230;2023-10-13T15:01:49;28.60;37.20
680;DHT22;322;48.846;9.230;2023-10-13T15:04:17;29.10;37.20
680;DHT22;322;48.846;9.230;2023-10-13T15:06:46;29.60;35.80
680;DHT22;322;48.846;9.230;2023-10-13T15:09:14;29.70;36.30
680;DHT22;322;48.846;9.230;2023-10-13T15:11:50;29.50;35.70
680;DHT22;322;48.846;9.230;2023-10-13T15:14:20;29.30;36.50
680;DHT22;322;48.846;9.230;2023-10-13T15:16:49;28.80;36.60
680;DHT22;322;48.846;9.230;2023-10-13T15:19:19;28.60;37.80
680;DHT22;322;48.846;9.230;2023-10-13T15:21:48;28.30;37.60
680;DHT22;322;48.846;9.230;2023-10-13T15:24:19;28.20;37.90
680;DHT22;322;48.846;9.230;2023-10-13T15:26:54;28.10;37.00
680;DHT22;322;48.846;9.230;2023-10-13T15:29:29;28.00;37.00
680;DHT22;322;48.846;9.230;2023-10-13T15:32:03;27.90;37.10
680;DHT22;322;48.846;9.230;2023-10-13T15:34:49;27.80;37.30
680;DHT22;322;48.846;9.230;2023-10-13T15:37:18;27.70;38.10
680;DHT22;322;48.846;9.230;2023-10-13T15:39:47;27.70;37.70
680;DHT22;322;48.846;9.230;2023-10-13T15:42:15;27.70;37.10
680;DHT22;322;48.846;9.230;2023-10-13T15:44:44;27.60;37.30
680;DHT22;322;48.846;9.230;2023-10-13T15:47:12;27.50;38.20
680;DHT22;322;48.846;9.230;2023-10-13T15:49:43;27.30;38.40
680;DHT22;322;48.846;9.230;2023-10-13T15:52:11;27.20;38.10
680;DHT22;322;48.846;9.230;2023-10-13T15:54:43;27.20;37.80
680;DHT22;322;48.846;9.230;2023-10-13T15:57:11;27.00;38.40
680;DHT22;322;48.846;9.230;2023-10-13T15:59:43;26.80;38.30
680;DHT22;322;48.846;9.230;2023-10-13T16:02:13;26.80;38.10
680;DHT22;322;48.846;9.230;2023-10-13T16:04:44;26.50;39.00
680;DHT22;322;48.846;9.230;2023-10-13T16:07:12;26.40;37.90
680;DHT22;322;48.846;9.230;2023-10-13T16:09:40;26.30;37.40
680;DHT22;322;48.846;9.230;2023-10-13T16:12:09;26.20;37.90
680;DHT22;322;48.846;9.230;2023-10-13T16:14:38;26.00;38.10
680;DHT22;322;48.846;9.230;2023-10-13T16:17:06;25.80;37.90
680;DHT22;322;48.846;9.230;2023-10-13T16:19:35;25.70;38.10
680;DHT22;322;48.846;9.230;2023-10-13T16:22:03;25.60;38.00
680;DHT22;322;48.846;9.230;2023-10-13T16:24:32;25.40;38.50
680;DHT22;322;48.846;9.230;2023-10-13T16:27:00;25.20;38.10
680;DHT22;322;48.846;9.230;2023-10-13T16:29:29;25.30;38.00
680;DHT22;322;48.846;9.230;2023-10-13T16:31:58;25.30;37.70
680;DHT22;322;48.846;9.230;2023-10-13T16:34:27;25.20;37.80
680;DHT22;322;48.846;9.230;2023-10-13T16:36:55;25.00;38.30
680;DHT22;322;48.846;9.230;2023-10-13T16:39:23;25.00;37.90
680;DHT22;322;48.846;9.230;2023-10-13T16:41:52;25.00;38.30
680;DHT22;322;48.846;9.230;2023-10-13T16:44:22;24.90;38.60
680;DHT22;322;48.846;9.230;2023-10-13T16:46:54;24.70;38.40
680;DHT22;322;48.846;9.230;2023-10-13T16:49:23;24.70;38.30
680;DHT22;322;48.846;9.230;2023-10-13T16:51:52;24.70;38.20
680;DHT22;322;48.846;9.230;2023-10-13T16:54:21;24.70;38.40
680;DHT22;322;48.846;9.230;2023-10-13T16:56:49;24.60;38.60
680;DHT22;322;48.846;9.230;2023-10-13T16:59:17;24.70;38.60
680;DHT22;322;48.846;9.230;2023-10-13T17:01:46;24.70;38.40
680;DHT22;322;48.846;9.230;2023-10-13T17:04:15;24.60;38.90
680;DHT22;322;48.846;9.230;2023-10-13T17:06:46;24.60;39.20
680;DHT22;322;48.846;9.230;2023-10-13T17:09:14;24.40;39.20
680;DHT22;322;48.846;9.230;2023-10-13T17:11:42;24.40;39.50
680;DHT22;322;48.846;9.230;2023-10-13T17:14:11;24.30;39.60
680;DHT22;322;48.846;9.230;2023-10-13T17:16:39;24.20;40.70
680;DHT22;322;48.846;9.230;2023-10-13T17:19:10;24.10;40.20
680;DHT22;322;48.846;9.230;2023-10-13T17:21:40;24.00;40.10
680;DHT22;322;48.846;9.230;2023-10-13T17:24:11;24.00;40.10